Time;durP1;ratioP1;P1;durP2;ratioP2;P2;SDS_P1;SDS_P2;PMS_P1;PMS_P2;Temp;Humidity;BMP_temperature;BMP_pressure;BME280_temperature;BME280_humidity;BME280_pressure;Samples;Min_cycle;Max_cycle;Signal;HPM_P1;HPM_P2
2024/01/14 00:02:10;;;;;;;0.80;0.60;;;;;;;-143.84;74.78;45231.88;5111552;28;20962;-59
2024/01/14 00:04:38;;;;;;;1.27;1.02;;;;;;;-143.84;74.47;45245.19;5111165;28;20198;-59
2024/01/14 00:07:05;;;;;;;3.45;2.75;;;;;;;-143.84;74.74;45212.84;5111153;28;20258;-59
2024/01/14 00:09:33;;;;;;;0.80;0.50;;;;;;;-143.84;74.41;45250.91;5110942;28;20197;-59
2024/01/14 00:12:00;;;;;;;0.90;0.80;;;;;;;-143.84;74.27;45245.19;5110845;28;20190;-59
2024/01/14 00:14:27;;;;;;;1.15;0.95;;;;;;;-143.84;74.34;45266.16;5110941;28;20279;-59
2024/01/14 00:16:54;;;;;;;0.80;0.50;;;;;;;-143.84;74.08;45252.81;5111280;28;20193;-59
2024/01/14 00:19:21;;;;;;;0.90;0.77;;;;;;;-143.84;74.22;45250.91;5110929;28;20205;-59
2024/01/14 00:21:50;;;;;;;0.80;0.50;;;;;;;-143.84;73.93;45228.06;5110649;28;20285;-59
2024/01/14 00:24:17;;;;;;;1.13;0.98;;;;;;;-143.84;73.57;45235.69;5110594;28;20239;-59
2024/01/14 00:26:44;;;;;;;0.93;0.82;;;;;;;-143.84;73.78;45241.41;5110877;28;20204;-59
2024/01/14 00:29:11;;;;;;;0.80;0.55;;;;;;;-143.84;73.53;45249.00;5110483;28;20202;-59
2024/01/14 00:31:38;;;;;;;0.80;0.50;;;;;;;-143.84;73.28;45269.97;5110804;28;20601;-59
2024/01/14 00:34:05;;;;;;;0.90;0.73;;;;;;;-143.84;73.36;45256.63;5110666;28;20314;-59
2024/01/14 00:36:32;;;;;;;0.88;0.73;;;;;;;-143.84;73.08;45228.06;5109385;28;20217;-59
2024/01/14 00:39:01;;;;;;;0.80;0.55;;;;;;;-143.84;73.24;45260.44;5109846;28;20193;-59
2024/01/14 00:41:28;;;;;;;0.80;0.50;;;;;;;-143.84;73.10;45224.25;5110411;28;20202;-59
2024/01/14 00:43:55;;;;;;;1.00;0.90;;;;;;;-143.84;73.13;45266.16;5110401;28;20193;-59
2024/01/14 00:46:23;;;;;;;0.80;0.50;;;;;;;-143.84;72.95;45254.72;5110135;28;20219;-59
2024/01/14 00:48:50;;;;;;;0.95;0.85;;;;;;;-143.84;73.29;45258.53;5110335;28;20224;-59
2024/01/14 00:51:17;;;;;;;1.13;1.02;;;;;;;-143.84;72.84;45235.69;5110555;28;20193;-59
2024/01/14 00:53:44;;;;;;;2.95;2.70;;;;;;;-143.84;72.86;45241.41;5109935;28;20197;-59
2024/01/14 00:56:13;;;;;;;1.53;1.40;;;;;;;-143.84;72.88;45239.50;5110346;28;20200;-59
2024/01/14 00:58:40;;;;;;;1.13;0.97;;;;;;;-143.84;72.61;45247.09;5110074;28;20439;-59
2024/01/14 01:01:07;;;;;;;0.80;0.50;;;;;;;-143.84;72.99;45235.69;5110222;28;20938;-59
2024/01/14 01:03:34;;;;;;;0.80;0.60;;;;;;;-143.84;72.45;45252.81;5110088;28;20197;-59
2024/01/14 01:06:02;;;;;;;1.50;1.40;;;;;;;-143.84;72.47;45252.81;5110115;28;20551;-59
2024/01/14 01:08:29;;;;;;;0.80;0.52;;;;;;;-143.84;72.22;45247.09;5109906;28;20197;-59
2024/01/14 01:10:56;;;;;;;0.80;0.70;;;;;;;-143.84;72.34;45281.38;5109841;28;20208;-59
2024/01/14 01:13:24;;;;;;;0.80;0.50;;;;;;;-143.84;72.39;45243.31;5109859;28;20193;-59
2024/01/14 01:15:51;;;;;;;0.82;0.65;;;;;;;-143.84;72.86;45233.78;5109765;28;20221;-59
2024/01/14 01:18:19;;;;;;;1.70;1.60;;;;;;;-143.84;73.11;45254.72;5109665;28;20197;-59
2024/01/14 01:20:48;;;;;;;1.35;1.20;;;;;;;-143.84;73.55;45260.44;5109529;28;20239;-59
2024/01/14 01:23:15;;;;;;;0.80;0.60;;;;;;;-143.84;74.18;45262.34;5109676;28;20205;-59
2024/01/14 01:25:42;;;;;;;1.73;1.63;;;;;;;-143.84;74.64;45256.63;5109516;28;20647;-59
2024/01/14 01:28:09;;;;;;;0.80;0.50;;;;;;;-143.84;74.04;45239.50;5109666;28;20458;-59
2024/01/14 01:30:38;;;;;;;0.80;0.50;;;;;;;-143.84;74.87;45229.97;5109478;28;20208;-59
2024/01/14 01:33:05;;;;;;;7.80;5.28;;;;;;;-143.84;75.06;45239.50;5109454;28;20197;-59
2024/01/14 01:35:32;;;;;;;0.80;0.50;;;;;;;-143.84;75.41;45269.97;5109483;28;20236;-59
2024/01/14 01:38:00;;;;;;;0.80;0.70;;;;;;;-143.84;75.20;45254.72;5109559;28;20602;-59
2024/01/14 01:40:27;;;;;;;1.55;1.45;;;;;;;-143.84;75.61;45277.56;5109431;28;20189;-59
2024/01/14 01:42:54;;;;;;;0.80;0.50;;;;;;;-143.84;75.15;45247.09;5109827;28;20201;-59
2024/01/14 01:45:21;;;;;;;0.80;0.50;;;;;;;-143.84;74.91;45235.69;5109541;28;20197;-59
2024/01/14 01:47:50;;;;;;;0.80;0.70;;;;;;;-143.84;75.06;45237.59;5109252;28;20918;-59
2024/01/14 01:50:17;;;;;;;0.80;0.60;;;;;;;-143.84;74.85;45239.50;5109584;28;20597;-59
2024/01/14 01:52:45;;;;;;;1.13;1.02;;;;;;;-143.84;74.66;45235.69;5109185;28;20250;-59
2024/01/14 01:55:13;;;;;;;0.80;0.70;;;;;;;-143.84;74.64;45262.34;5109213;28;20706;-59
2024/01/14 01:57:41;;;;;;;0.80;0.50;;;;;;;-143.84;74.57;45273.78;5109460;28;20242;-59
2024/01/14 02:00:09;;;;;;;2.28;1.80;;;;;;;-143.84;74.10;45249.00;5109052;28;20667;-59
2024/01/14 02:02:41;;;;;;;0.80;0.50;;;;;;;-143.84;74.55;45258.53;5108955;28;20288;-59
2024/01/14 02:05:10;;;;;;;1.02;0.75;;;;;;;-143.84;74.55;45243.31;5109076;28;20213;-59
2024/01/14 02:07:38;;;;;;;0.80;0.57;;;;;;;-143.84;73.97;45249.00;5109108;28;20197;-59
2024/01/14 02:10:05;;;;;;;0.80;0.50;;;;;;;-143.84;73.90;45239.50;5109053;28;20668;-59
2024/01/14 02:12:32;;;;;;;0.80;0.50;;;;;;;-143.84;73.63;45235.69;5108997;28;20189;-59
2024/01/14 02:14:59;;;;;;;1.10;0.90;;;;;;;-143.84;73.59;45252.81;5108848;28;20221;-59
2024/01/14 02:17:27;;;;;;;2.03;1.83;;;;;;;-143.84;73.26;45245.19;5108900;28;20247;-59
2024/01/14 02:19:54;;;;;;;0.80;0.60;;;;;;;-143.84;73.36;45250.91;5108689;28;20621;-59
2024/01/14 02:22:28;;;;;;;1.75;1.05;;;;;;;-143.84;73.35;45268.06;5108851;28;20674;-59
2024/01/14 02:24:57;;;;;;;0.80;0.50;;;;;;;-143.84;73.26;45275.66;5109039;28;20253;-59
2024/01/14 02:27:25;;;;;;;1.05;0.95;;;;;;;-143.84;72.93;45271.88;5108810;28;20197;-59
2024/01/14 02:29:54;;;;;;;0.80;0.52;;;;;;;-143.84;72.48;45243.31;5109125;28;20197;-59
2024/01/14 02:32:21;;;;;;;1.10;0.82;;;;;;;-143.84;72.34;45224.25;5108959;28;20760;-59
2024/01/14 02:34:49;;;;;;;0.80;0.63;;;;;;;-143.84;72.31;45249.00;5108684;28;20224;-59
2024/01/14 02:37:16;;;;;;;0.80;0.50;;;;;;;-143.84;72.18;45237.59;5108757;28;20251;-59
2024/01/14 02:39:43;;;;;;;0.90;0.70;;;;;;;-143.84;72.00;45237.59;5108542;28;20204;-59
2024/01/14 02:42:12;;;;;;;1.00;0.80;;;;;;;-143.84;71.92;45247.09;5108584;28;20280;-59
2024/01/14 02:44:39;;;;;;;1.00;0.88;;;;;;;-143.84;71.62;45237.59;5101206;28;20267;-59
2024/01/14 02:47:06;;;;;;;0.80;0.65;;;;;;;-143.84;71.21;45249.00;5088556;28;20220;-59
2024/01/14 02:49:33;;;;;;;0.80;0.70;;;;;;;-143.84;71.23;45258.53;5103040;28;20214;-59
2024/01/14 02:52:01;;;;;;;0.80;0.50;;;;;;;-143.84;70.79;45239.50;5108507;28;20224;-59
2024/01/14 02:54:28;;;;;;;0.80;0.50;;;;;;;-143.84;71.00;45247.09;5108436;28;20242;-59
2024/01/14 02:56:55;;;;;;;1.83;1.70;;;;;;;-143.84;71.17;45233.78;5108360;28;20226;-59
2024/01/14 02:59:23;;;;;;;0.80;0.50;;;;;;;-143.84;70.93;45228.06;5110834;28;20239;-59
2024/01/14 03:01:51;;;;;;;0.80;0.50;;;;;;;-143.84;70.20;45247.09;5112410;28;20204;-59
2024/01/14 03:04:18;;;;;;;1.88;1.27;;;;;;;-143.84;70.46;45226.16;5112495;28;20205;-59
2024/01/14 03:06:45;;;;;;;2.08;1.73;;;;;;;-143.84;70.68;45249.00;5112182;28;20197;-59
2024/01/14 03:09:12;;;;;;;0.80;0.60;;;;;;;-143.84;70.65;45249.00;5093959;28;20230;-59
2024/01/14 03:11:39;;;;;;;1.17;1.08;;;;;;;-143.84;70.45;45249.00;5092128;28;20197;-59
2024/01/14 03:14:06;;;;;;;0.80;0.60;;;;;;;-143.84;70.40;45224.25;5091866;28;20197;-59
2024/01/14 03:16:35;;;;;;;0.80;0.60;;;;;;;-143.84;70.68;45247.09;5110147;28;20624;-59
2024/01/14 03:19:02;;;;;;;0.80;0.50;;;;;;;-143.84;70.33;45229.97;5112023;28;20622;-59
2024/01/14 03:21:29;;;;;;;0.80;0.60;;;;;;;-143.84;70.24;45237.59;5112033;28;20944;-59
2024/01/14 03:23:55;;;;;;;0.90;0.75;;;;;;;-143.84;70.11;45252.81;5112253;28;20282;-59
2024/01/14 03:26:22;;;;;;;2.15;2.05;;;;;;;-143.84;70.54;45254.72;5111891;28;20229;-59
2024/01/14 03:28:51;;;;;;;1.15;1.05;;;;;;;-143.84;70.39;45247.09;5112104;28;20690;-59
2024/01/14 03:31:18;;;;;;;7.43;2.63;;;;;;;-143.84;70.43;45241.41;5111774;28;20208;-59
2024/01/14 03:33:47;;;;;;;0.80;0.50;;;;;;;-143.84;70.72;45268.06;5112061;28;20205;-59
2024/01/14 03:36:15;;;;;;;0.80;0.50;;;;;;;-143.84;70.28;45239.50;5111817;28;20231;-59
2024/01/14 03:38:42;;;;;;;0.80;0.60;;;;;;;-143.84;70.40;45247.09;5111917;28;20439;-59
2024/01/14 03:41:09;;;;;;;0.80;0.50;;;;;;;-143.84;70.55;45249.00;5111648;28;20446;-59
2024/01/14 03:43:36;;;;;;;0.82;0.65;;;;;;;-143.84;70.56;45277.56;5110573;28;20201;-59
2024/01/14 03:46:04;;;;;;;1.70;1.60;;;;;;;-143.84;70.57;45243.31;5110529;28;20759;-59
2024/01/14 03:48:31;;;;;;;0.82;0.65;;;;;;;-143.84;70.95;45235.69;5110755;28;20198;-59
2024/01/14 03:50:59;;;;;;;0.80;0.60;;;;;;;-143.84;71.05;45252.81;5110816;28;20289;-59
2024/01/14 03:53:26;;;;;;;1.05;0.95;;;;;;;-143.84;71.28;45254.72;5110964;28;20197;-59
2024/01/14 03:55:53;;;;;;;0.80;0.50;;;;;;;-143.84;70.71;45273.78;5111513;28;20224;-59
2024/01/14 03:58:21;;;;;;;0.80;0.60;;;;;;;-143.84;71.07;45281.38;5111326;28;20201;-59
2024/01/14 04:00:48;;;;;;;0.80;0.50;;;;;;;-143.84;70.61;45254.72;5111104;28;20254;-59
2024/01/14 04:03:15;;;;;;;1.48;1.38;;;;;;;-143.84;70.40;45247.09;5111626;28;20194;-59
2024/01/14 04:05:41;;;;;;;0.95;0.75;;;;;;;-143.84;70.49;45258.53;5111296;28;20920;-59
2024/01/14 04:08:10;;;;;;;1.50;0.98;;;;;;;-143.84;70.08;45266.16;5111335;28;20288;-59
2024/01/14 04:10:37;;;;;;;0.80;0.50;;;;;;;-143.84;69.97;45222.34;5111254;28;20194;-59
2024/01/14 04:13:04;;;;;;;1.17;1.07;;;;;;;-143.84;69.58;45220.44;5111317;28;20200;-59
2024/01/14 04:15:31;;;;;;;0.80;0.60;;;;;;;-143.84;69.44;45237.59;5110888;28;20519;-59
2024/01/14 04:17:58;;;;;;;0.80;0.60;;;;;;;-143.84;68.91;45262.34;5111288;28;20204;-59
2024/01/14 04:20:25;;;;;;;0.93;0.83;;;;;;;-143.84;68.41;45233.78;5110880;28;20243;-59
2024/01/14 04:22:52;;;;;;;0.80;0.57;;;;;;;-143.84;68.17;45277.56;5111041;28;20814;-59
2024/01/14 04:25:21;;;;;;;1.42;1.33;;;;;;;-143.84;67.53;45254.72;5111215;28;20258;-59
2024/01/14 04:27:48;;;;;;;0.90;0.80;;;;;;;-143.84;67.02;45237.59;5110856;28;20201;-59
2024/01/14 04:30:15;;;;;;;0.80;0.55;;;;;;;-143.84;66.70;45254.72;5110553;28;20435;-59
2024/01/14 04:32:43;;;;;;;8.10;1.77;;;;;;;-143.84;66.54;45247.09;5110436;28;20197;-59
2024/01/14 04:35:10;;;;;;;2.00;1.90;;;;;;;-143.84;66.44;45262.34;5110763;28;20274;-59
2024/01/14 04:37:37;;;;;;;0.80;0.50;;;;;;;-143.84;65.76;45239.50;5110743;28;20201;-59
2024/01/14 04:40:04;;;;;;;0.80;0.60;;;;;;;-143.84;65.54;45218.53;5110681;28;20208;-59
2024/01/14 04:42:33;;;;;;;1.10;1.00;;;;;;;-143.84;65.33;45237.59;5110622;28;20943;-59
2024/01/14 04:45:00;;;;;;;0.80;0.50;;;;;;;-143.84;65.08;45229.97;5110391;28;21025;-59
2024/01/14 04:47:27;;;;;;;2.75;1.40;;;;;;;-143.84;64.86;45245.19;5110404;28;20427;-59
2024/01/14 04:49:54;;;;;;;0.80;0.50;;;;;;;-143.84;64.93;45249.00;5110307;28;20205;-59
2024/01/14 04:52:21;;;;;;;0.80;0.60;;;;;;;-143.84;64.29;45254.72;5110466;28;20563;-59
2024/01/14 04:54:49;;;;;;;0.80;0.67;;;;;;;-143.84;64.13;45243.31;5110300;28;20495;-59
2024/01/14 04:57:16;;;;;;;3.60;1.63;;;;;;;-143.84;63.84;45266.16;5110269;28;20536;-59
2024/01/14 04:59:45;;;;;;;0.80;0.60;;;;;;;-143.84;63.80;45266.16;5110286;28;20439;-59
2024/01/14 05:02:12;;;;;;;1.35;1.25;;;;;;;-143.84;64.18;45229.97;5110142;28;20209;-59
2024/01/14 05:04:39;;;;;;;0.87;0.70;;;;;;;-143.84;64.30;45235.69;5110117;28;20601;-59
2024/01/14 05:07:06;;;;;;;2.13;1.20;;;;;;;-143.84;64.33;45241.41;5110099;28;20464;-59
2024/01/14 05:09:33;;;;;;;0.80;0.50;;;;;;;-143.84;64.11;45243.31;5109873;28;20439;-59
2024/01/14 05:12:00;;;;;;;0.80;0.60;;;;;;;-143.84;64.19;45235.69;5109918;28;20688;-59
2024/01/14 05:14:28;;;;;;;1.10;0.93;;;;;;;-143.84;64.24;45250.91;5109790;28;20492;-59
2024/01/14 05:16:56;;;;;;;0.80;0.60;;;;;;;-143.84;63.62;45243.31;5109656;28;20213;-59
2024/01/14 05:19:23;;;;;;;0.80;0.50;;;;;;;-143.84;63.63;45222.34;5109836;28;20250;-59
2024/01/14 05:21:52;;;;;;;0.80;0.60;;;;;;;-143.84;63.59;45233.78;5108887;28;20340;-59
2024/01/14 05:24:19;;;;;;;1.17;1.08;;;;;;;-143.84;63.38;45264.25;5109638;28;20200;-59
2024/01/14 05:26:46;;;;;;;0.80;0.60;;;;;;;-143.84;63.14;45243.31;5109781;28;20209;-59
2024/01/14 05:29:14;;;;;;;1.00;0.90;;;;;;;-143.84;62.84;45233.78;5109702;28;20633;-59
2024/01/14 05:31:41;;;;;;;0.90;0.70;;;;;;;-143.84;63.03;45229.97;5109697;28;20655;-59
2024/01/14 05:34:09;;;;;;;0.80;0.50;;;;;;;-143.84;62.62;45249.00;5109534;28;20445;-59
2024/01/14 05:36:37;;;;;;;0.80;0.50;;;;;;;-143.84;62.60;45254.72;5109597;28;20574;-59
2024/01/14 05:39:04;;;;;;;0.80;0.50;;;;;;;-143.84;62.29;45250.91;5109118;28;20225;-59
2024/01/14 05:41:31;;;;;;;0.90;0.70;;;;;;;-143.84;61.89;45216.63;5109236;28;20552;-59
2024/01/14 05:43:59;;;;;;;0.80;0.60;;;;;;;-143.84;61.63;45218.53;5109393;28;20550;-59
2024/01/14 05:46:26;;;;;;;0.90;0.67;;;;;;;-143.84;61.67;45220.44;5109438;28;20804;-59
2024/01/14 05:48:53;;;;;;;1.33;1.23;;;;;;;-143.84;61.39;45199.50;5109465;28;20539;-59
2024/01/14 05:51:22;;;;;;;0.80;0.50;;;;;;;-143.84;61.43;45218.53;5109242;28;20450;-59
2024/01/14 05:53:49;;;;;;;1.20;1.10;;;;;;;-143.84;61.07;45237.59;5109047;28;20815;-59
2024/01/14 05:56:25;;;;;;;1.23;0.87;;;;;;;-143.84;60.62;45249.00;5109064;28;20228;-59
2024/01/14 05:58:53;;;;;;;1.13;1.03;;;;;;;-143.84;60.41;45241.41;5108958;28;20537;-59
2024/01/14 06:01:20;;;;;;;0.80;0.60;;;;;;;-143.84;60.47;45258.53;5109092;28;20816;-59
2024/01/14 06:03:47;;;;;;;8.03;2.10;;;;;;;-143.84;60.05;45250.91;5109076;28;20496;-59
2024/01/14 06:06:15;;;;;;;1.70;1.60;;;;;;;-143.84;59.92;45222.34;5109034;28;20439;-59
2024/01/14 06:08:43;;;;;;;0.80;0.50;;;;;;;-143.84;59.53;45226.16;5109105;28;20488;-59
2024/01/14 06:11:11;;;;;;;0.90;0.80;;;;;;;-143.84;59.95;45256.63;5108801;28;20496;-59
2024/01/14 06:13:39;;;;;;;0.80;0.60;;;;;;;-143.84;59.36;45224.25;5108755;28;20443;-59
2024/01/14 06:16:06;;;;;;;0.80;0.50;;;;;;;-143.84;59.36;45243.31;5108879;28;20478;-59
2024/01/14 06:18:34;;;;;;;0.80;0.50;;;;;;;-143.84;59.07;45237.59;5108951;28;20435;-59
2024/01/14 06:21:01;;;;;;;2.70;1.42;;;;;;;-143.84;58.57;45226.16;5108764;28;20826;-59
2024/01/14 06:23:29;;;;;;;0.80;0.70;;;;;;;-143.84;58.80;45226.16;5108918;28;20197;-58
2024/01/14 06:25:58;;;;;;;1.17;1.07;;;;;;;-143.84;58.84;45222.34;5109084;28;20454;-59
2024/01/14 06:28:26;;;;;;;0.80;0.50;;;;;;;-143.84;58.59;45220.44;5108836;28;20435;-58
2024/01/14 06:30:53;;;;;;;0.80;0.60;;;;;;;-143.84;58.35;45266.16;5108737;28;20443;-59
2024/01/14 06:33:20;;;;;;;0.80;0.50;;;;;;;-143.84;58.33;45228.06;5111258;28;20451;-59
2024/01/14 06:35:47;;;;;;;1.10;0.80;;;;;;;-143.84;58.41;45231.88;5109697;28;20450;-57
2024/01/14 06:38:14;;;;;;;0.80;0.57;;;;;;;-143.84;58.04;45216.63;5103343;28;20455;-56
2024/01/14 06:40:42;;;;;;;6.10;2.27;;;;;;;-143.84;58.11;45218.53;5113266;28;20818;-56
2024/01/14 06:43:10;;;;;;;1.57;1.47;;;;;;;-143.84;57.88;45247.09;5113499;28;20423;-57
2024/01/14 06:45:38;;;;;;;3.23;1.60;;;;;;;-143.84;57.40;45203.31;5113222;28;20438;-56
2024/01/14 06:48:06;;;;;;;1.87;1.77;;;;;;;-143.84;57.26;45220.44;5113263;28;20442;-56
2024/01/14 06:50:33;;;;;;;0.80;0.50;;;;;;;-143.84;57.16;45209.03;5112720;28;20435;-56
2024/01/14 06:53:00;;;;;;;1.00;0.80;;;;;;;-143.84;56.58;45228.06;5113028;28;21170;-57
2024/01/14 06:55:27;;;;;;;0.80;0.60;;;;;;;-143.84;56.63;45220.44;5113245;28;20427;-57
2024/01/14 06:57:54;;;;;;;0.90;0.80;;;;;;;-143.84;55.31;45233.78;5113108;28;20474;-56
2024/01/14 07:00:24;;;;;;;0.80;0.53;;;;;;;-143.84;55.50;45228.06;5113078;28;20444;-56
2024/01/14 07:02:51;;;;;;;7.30;5.03;;;;;;;-143.84;55.82;45197.59;5113108;28;20468;-57
2024/01/14 07:05:18;;;;;;;0.80;0.60;;;;;;;-143.84;55.19;45214.72;5112354;28;20450;-56
2024/01/14 07:07:45;;;;;;;0.80;0.50;;;;;;;-143.84;54.18;45222.34;5113160;28;20483;-56
2024/01/14 07:10:12;;;;;;;0.83;0.67;;;;;;;-143.84;53.92;45209.03;5112501;28;20962;-56
2024/01/14 07:12:39;;;;;;;1.73;1.63;;;;;;;-143.84;52.18;45212.84;5112652;28;20865;-56
2024/01/14 07:15:08;;;;;;;1.20;1.03;;;;;;;-143.84;51.96;45224.25;5112378;28;20438;-56
2024/01/14 07:17:36;;;;;;;2.30;2.10;;;;;;;-143.84;51.56;45203.31;5111961;28;20472;-56
2024/01/14 07:20:04;;;;;;;1.03;0.87;;;;;;;-143.84;51.42;45250.91;5111813;28;20483;-56
2024/01/14 07:22:31;;;;;;;0.90;0.80;;;;;;;-143.84;50.48;45245.19;5111896;28;20794;-56
2024/01/14 07:24:58;;;;;;;2.03;1.17;;;;;;;-143.84;50.36;45207.13;5111848;28;20439;-56
2024/01/14 07:27:25;;;;;;;0.80;0.50;;;;;;;-143.84;50.02;45186.16;5112193;28;20443;-56
2024/01/14 07:29:52;;;;;;;0.80;0.57;;;;;;;-143.84;49.19;45222.34;5112768;28;20432;-56
2024/01/14 07:32:19;;;;;;;2.87;1.57;;;;;;;-143.84;49.39;45197.59;5112197;28;20493;-56
2024/01/14 07:34:48;;;;;;;4.53;1.53;;;;;;;-143.84;48.68;45209.03;5111667;28;20452;-57
2024/01/14 07:37:15;;;;;;;2.50;1.17;;;;;;;-143.84;47.38;45231.88;5110210;28;20492;-56
2024/01/14 07:39:42;;;;;;;1.33;1.23;;;;;;;-143.84;46.70;45233.78;5111847;28;20451;-57
2024/01/14 07:42:09;;;;;;;0.80;0.50;;;;;;;-143.84;46.72;45231.88;5112199;28;20806;-57
2024/01/14 07:44:36;;;;;;;2.30;1.23;;;;;;;-143.84;45.96;45193.78;5111373;28;20446;-57
2024/01/14 07:47:04;;;;;;;5.07;1.53;;;;;;;-143.84;45.79;45209.03;5112644;28;20435;-57
2024/01/14 07:49:31;;;;;;;1.30;1.20;;;;;;;-143.84;45.40;45216.63;5112010;28;20441;-57
2024/01/14 07:52:00;;;;;;;1.03;0.80;;;;;;;-143.84;45.49;45216.63;5111718;28;20877;-56
2024/01/14 07:54:27;;;;;;;1.43;1.33;;;;;;;-143.84;45.32;45210.94;5112052;28;20833;-57
2024/01/14 07:56:54;;;;;;;1.03;0.90;;;;;;;-143.84;44.93;45205.22;5111904;28;20527;-57
2024/01/14 07:59:23;;;;;;;1.47;1.37;;;;;;;-143.84;44.54;45188.06;5111621;28;20805;-57
2024/01/14 08:01:50;;;;;;;1.33;1.17;;;;;;;-143.84;44.24;45186.16;5111649;28;20447;-57
2024/01/14 08:04:17;;;;;;;1.57;0.80;;;;;;;-143.84;43.99;45199.50;5110667;28;20451;-57
2024/01/14 08:06:45;;;;;;;1.07;0.97;;;;;;;-143.84;43.70;45178.56;5109690;28;20487;-57
2024/01/14 08:09:14;;;;;;;0.80;0.63;;;;;;;-143.84;43.16;45197.59;5110544;28;20439;-57
2024/01/14 08:11:41;;;;;;;1.70;1.00;;;;;;;-143.84;43.08;45197.59;5110617;28;20802;-56
2024/01/14 08:14:08;;;;;;;2.20;1.83;;;;;;;-143.84;42.48;45197.59;5109954;28;20509;-57
2024/01/14 08:16:35;;;;;;;1.70;1.57;;;;;;;-143.84;42.39;45195.69;5110288;28;21066;-57
2024/01/14 08:19:03;;;;;;;1.10;1.00;;;;;;;-143.84;42.62;45216.63;5108751;28;20459;-56
2024/01/14 08:21:30;;;;;;;1.00;0.73;;;;;;;-143.84;42.14;45180.47;5110116;28;20481;-57
2024/01/14 08:23:57;;;;;;;1.63;1.37;;;;;;;-143.84;42.09;45178.56;5111129;28;20510;-57
2024/01/14 08:26:26;;;;;;;0.80;0.60;;;;;;;-143.84;41.82;45178.56;5109191;28;20458;-56
2024/01/14 08:28:53;;;;;;;1.00;0.90;;;;;;;-143.84;42.00;45184.25;5110658;28;20442;-57
2024/01/14 08:31:20;;;;;;;2.70;1.37;;;;;;;-143.84;42.22;45151.91;5110892;28;20435;-56
2024/01/14 08:33:47;;;;;;;1.47;1.37;;;;;;;-143.84;41.88;45188.06;5110670;28;20431;-57
2024/01/14 08:36:14;;;;;;;1.50;1.40;;;;;;;-143.84;42.09;45188.06;5110050;28;21009;-57
2024/01/14 08:38:42;;;;;;;8.30;3.13;;;;;;;-143.84;41.97;45199.50;5108079;28;20834;-57
2024/01/14 08:41:09;;;;;;;1.03;0.93;;;;;;;-143.84;41.88;45207.13;5111153;28;20455;-57
2024/01/14 08:43:38;;;;;;;1.60;1.50;;;;;;;-143.84;41.90;45218.53;5110638;28;20448;-57
2024/01/14 08:46:05;;;;;;;2.03;1.43;;;;;;;-143.84;41.37;45191.88;5110578;28;20437;-57
2024/01/14 08:48:32;;;;;;;2.20;1.73;;;;;;;-143.84;41.25;45170.94;5110742;28;20444;-57
2024/01/14 08:51:01;;;;;;;1.20;1.10;;;;;;;-143.84;40.59;45178.56;5110828;28;20508;-57
2024/01/14 08:53:28;;;;;;;1.77;1.67;;;;;;;-143.84;41.07;45150.00;5110703;28;20535;-57
2024/01/14 08:55:55;;;;;;;5.20;4.70;;;;;;;-143.84;40.88;45186.16;5109729;28;20442;-57
2024/01/14 08:58:22;;;;;;;0.80;0.50;;;;;;;-143.84;41.20;45186.16;5110925;28;20484;-57
2024/01/14 09:00:51;;;;;;;1.20;0.97;;;;;;;-143.84;41.08;45195.69;5111045;28;20501;-57
2024/01/14 09:03:18;;;;;;;2.43;1.30;;;;;;;-143.84;41.04;45163.31;5111404;28;20479;-57
2024/01/14 09:05:45;;;;;;;0.90;0.60;;;;;;;-143.84;40.86;45163.31;5110095;28;20545;-57
2024/01/14 09:08:14;;;;;;;0.80;0.70;;;;;;;-143.84;40.93;45148.09;5110953;28;20440;-58
2024/01/14 09:10:41;;;;;;;1.10;1.00;;;;;;;-143.84;40.98;45176.66;5110840;28;20566;-57
2024/01/14 09:13:08;;;;;;;8.57;2.60;;;;;;;-143.84;41.86;45157.59;5110698;28;20438;-58
2024/01/14 09:15:35;;;;;;;1.90;1.73;;;;;;;-143.84;42.02;45180.47;5110513;28;21202;-58
2024/01/14 09:18:04;;;;;;;2.40;2.20;;;;;;;-143.84;42.46;45188.06;5110534;28;20470;-57
2024/01/14 09:20:32;;;;;;;3.23;2.93;;;;;;;-143.84;42.46;45189.97;5109912;28;21084;-57
2024/01/14 09:22:59;;;;;;;1.03;0.93;;;;;;;-143.84;42.60;45167.13;5110580;28;20528;-58
2024/01/14 09:25:26;;;;;;;2.20;1.00;;;;;;;-143.84;42.52;45193.78;5110570;28;20435;-57
2024/01/14 09:27:55;;;;;;;3.10;1.50;;;;;;;-143.84;42.64;45180.47;5110391;28;20462;-57
2024/01/14 09:30:22;;;;;;;1.47;1.10;;;;;;;-143.84;43.30;45205.22;5110364;28;20500;-57
2024/01/14 09:32:49;;;;;;;2.00;1.87;;;;;;;-143.84;43.11;45174.75;5110087;28;20863;-58
2024/01/14 09:35:18;;;;;;;1.73;1.60;;;;;;;-143.84;43.10;45199.50;5092902;28;20455;-58
2024/01/14 09:37:45;;;;;;;1.13;1.03;;;;;;;-143.84;43.34;45186.16;5090041;28;20552;-57
2024/01/14 09:40:12;;;;;;;1.23;1.03;;;;;;;-143.84;43.69;45193.78;5089720;28;20441;-57
2024/01/14 09:42:43;;;;;;;1.30;0.90;;;;;;;-143.84;43.82;45178.56;5089718;28;20447;-57
2024/01/14 09:45:10;;;;;;;2.07;1.97;;;;;;;-143.84;43.58;45209.03;5090124;28;20462;-57
2024/01/14 09:47:38;;;;;;;2.80;1.37;;;;;;;-143.84;43.37;45191.88;5089548;28;20443;-58
2024/01/14 09:50:07;;;;;;;0.90;0.80;;;;;;;-143.84;42.54;45176.66;5089022;28;21176;-57
2024/01/14 09:52:38;;;;;;;4.70;2.30;;;;;;;-143.84;42.61;45169.03;5089631;28;20509;-58
2024/01/14 09:55:06;;;;;;;0.90;0.70;;;;;;;-143.84;42.21;45178.56;5089593;28;20449;-58
2024/01/14 09:57:35;;;;;;;2.73;1.93;;;;;;;-143.84;42.72;45186.16;5089482;28;20480;-58
2024/01/14 10:00:05;;;;;;;1.00;0.90;;;;;;;-143.84;41.57;45188.06;5089318;28;20489;-58
2024/01/14 10:02:34;;;;;;;1.17;0.97;;;;;;;-143.84;41.82;45180.47;5089338;28;20526;-58
2024/01/14 10:05:02;;;;;;;1.67;1.53;;;;;;;-143.84;41.53;45184.25;5093183;28;20439;-58
2024/01/14 10:07:30;;;;;;;2.40;1.73;;;;;;;-143.84;40.85;45155.69;5109195;28;20805;-58
2024/01/14 10:09:58;;;;;;;1.30;1.20;;;;;;;-143.84;41.21;45151.91;5109219;28;20786;-57
2024/01/14 10:12:26;;;;;;;1.00;0.90;;;;;;;-143.84;40.60;45178.56;5109545;28;20476;-58
2024/01/14 10:14:58;;;;;;;1.63;1.53;;;;;;;-143.84;40.31;45197.59;5109601;28;20460;-58
2024/01/14 10:17:26;;;;;;;2.83;1.70;;;;;;;-143.84;40.08;45186.16;5109981;28;20478;-58
2024/01/14 10:19:54;;;;;;;2.40;2.20;;;;;;;-143.84;39.65;45182.38;5108836;28;20429;-58
2024/01/14 10:22:21;;;;;;;6.90;2.00;;;;;;;-143.84;39.75;45157.59;5109011;28;20544;-58
2024/01/14 10:24:54;;;;;;;4.00;1.77;;;;;;;-143.84;38.97;45180.47;5109647;28;20490;-57
2024/01/14 10:27:24;;;;;;;1.73;0.77;;;;;;;-143.84;39.15;45176.66;5109027;28;20499;-57
2024/01/14 10:29:51;;;;;;;0.90;0.63;;;;;;;-143.84;38.70;45167.13;5109706;28;20972;-57
2024/01/14 10:32:19;;;;;;;1.27;1.03;;;;;;;-143.84;38.84;45172.84;5109715;28;20763;-57
2024/01/14 10:34:46;;;;;;;0.80;0.50;;;;;;;-143.84;37.85;45159.50;5109574;28;20470;-57
2024/01/14 10:37:13;;;;;;;1.83;1.00;;;;;;;-143.84;37.30;45157.59;5104758;28;20489;-57
2024/01/14 10:39:41;;;;;;;0.80;0.50;;;;;;;-143.84;37.23;45163.31;5107966;28;20461;-57
2024/01/14 10:42:09;;;;;;;1.17;1.07;;;;;;;-143.84;36.86;45165.22;5107892;28;20987;-57
2024/01/14 10:44:37;;;;;;;4.80;2.07;;;;;;;-143.84;36.73;45155.69;5109248;28;20439;-58
2024/01/14 10:47:08;;;;;;;1.30;1.00;;;;;;;-143.84;36.24;45146.19;5106811;28;20447;-57
2024/01/14 10:49:37;;;;;;;1.97;1.50;;;;;;;-143.84;36.05;45157.59;5102943;28;20538;-59
2024/01/14 10:52:09;;;;;;;1.47;1.00;;;;;;;-143.84;37.10;45163.31;5102895;28;20462;-60
2024/01/14 10:54:46;;;;;;;1.20;1.10;;;;;;;-143.84;36.67;45153.81;5108530;28;20890;-60
2024/01/14 10:57:31;;;;;;;2.87;2.67;;;;;;;-143.84;36.64;45132.84;5106163;28;20445;-60
2024/01/14 11:00:05;;;;;;;0.80;0.50;;;;;;;-143.84;36.98;45163.31;5109380;28;20438;-60
2024/01/14 11:02:34;;;;;;;0.80;0.53;;;;;;;-143.84;37.44;45161.41;5109083;28;20469;-61
2024/01/14 11:05:02;;;;;;;1.10;1.00;;;;;;;-143.84;36.90;45153.81;5109162;28;20449;-60
2024/01/14 11:07:32;;;;;;;0.80;0.50;;;;;;;-143.84;37.15;45172.84;5109155;28;20500;-60
2024/01/14 11:10:00;;;;;;;1.37;1.17;;;;;;;-143.84;37.19;45144.28;5109558;28;20442;-60
2024/01/14 11:12:34;;;;;;;6.37;2.50;;;;;;;-143.84;37.53;45130.94;5109680;28;20450;-60
2024/01/14 11:15:08;;;;;;;0.90;0.80;;;;;;;-143.84;37.21;45159.50;5109547;28;20429;-60
2024/01/14 11:17:56;;;;;;;3.03;2.83;;;;;;;-143.84;37.59;45176.66;5109476;28;21056;-60
2024/01/14 11:20:29;;;;;;;0.80;0.50;;;;;;;-143.84;37.16;45151.91;5109053;28;20479;-60